sensor_id;sensor_type;location;lat;lon;timestamp;P1;durP1;ratioP1;P2;durP2;ratioP2
21507;SDS011;10915;54.352;9.074;2023-11-21T00:00:18;12.77;;;9.70;;
21507;SDS011;10915;54.352;9.074;2023-11-21T00:02:44;11.93;;;10.10;;
21507;SDS011;10915;54.352;9.074;2023-11-21T00:05:13;10.13;;;8.23;;
21507;SDS011;10915;54.352;9.074;2023-11-21T00:07:39;12.70;;;11.10;;
21507;SDS011;10915;54.352;9.074;2023-11-21T00:10:06;13.53;;;10.40;;
21507;SDS011;10915;54.352;9.074;2023-11-21T00:12:35;13.47;;;9.93;;
21507;SDS011;10915;54.352;9.074;2023-11-21T00:15:02;12.70;;;10.07;;
21507;SDS011;10915;54.352;9.074;2023-11-21T00:17:30;13.27;;;10.07;;
21507;SDS011;10915;54.352;9.074;2023-11-21T00:19:55;14.50;;;10.87;;
21507;SDS011;10915;54.352;9.074;2023-11-21T00:22:21;14.17;;;11.30;;
21507;SDS011;10915;54.352;9.074;2023-11-21T00:24:47;14.80;;;11.13;;
21507;SDS011;10915;54.352;9.074;2023-11-21T00:27:13;13.53;;;10.93;;
21507;SDS011;10915;54.352;9.074;2023-11-21T00:29:39;13.27;;;10.50;;
21507;SDS011;10915;54.352;9.074;2023-11-21T00:32:05;12.17;;;10.00;;
21507;SDS011;10915;54.352;9.074;2023-11-21T00:34:31;13.17;;;10.87;;
21507;SDS011;10915;54.352;9.074;2023-11-21T00:36:57;12.97;;;10.10;;
21507;SDS011;10915;54.352;9.074;2023-11-21T00:39:23;12.97;;;9.87;;
21507;SDS011;10915;54.352;9.074;2023-11-21T00:41:49;13.20;;;9.87;;
21507;SDS011;10915;54.352;9.074;2023-11-21T00:44:14;11.67;;;9.50;;
21507;SDS011;10915;54.352;9.074;2023-11-21T00:46:41;14.93;;;10.33;;
21507;SDS011;10915;54.352;9.074;2023-11-21T00:49:06;13.57;;;10.70;;
21507;SDS011;10915;54.352;9.074;2023-11-21T00:51:32;14.20;;;10.83;;
21507;SDS011;10915;54.352;9.074;2023-11-21T00:53:58;14.87;;;10.77;;
21507;SDS011;10915;54.352;9.074;2023-11-21T00:56:24;12.57;;;10.90;;
21507;SDS011;10915;54.352;9.074;2023-11-21T00:58:49;14.33;;;10.80;;
21507;SDS011;10915;54.352;9.074;2023-11-21T01:01:17;17.73;;;10.67;;
21507;SDS011;10915;54.352;9.074;2023-11-21T01:03:43;14.63;;;10.70;;
21507;SDS011;10915;54.352;9.074;2023-11-21T01:06:11;13.93;;;11.10;;
21507;SDS011;10915;54.352;9.074;2023-11-21T01:08:37;12.03;;;10.17;;
21507;SDS011;10915;54.352;9.074;2023-11-21T01:11:03;14.00;;;10.77;;
21507;SDS011;10915;54.352;9.074;2023-11-21T01:13:29;16.30;;;13.43;;
21507;SDS011;10915;54.352;9.074;2023-11-21T01:15:55;16.50;;;14.47;;
21507;SDS011;10915;54.352;9.074;2023-11-21T01:18:21;19.80;;;15.53;;
21507;SDS011;10915;54.352;9.074;2023-11-21T01:20:47;18.23;;;16.23;;
21507;SDS011;10915;54.352;9.074;2023-11-21T01:23:13;20.50;;;16.87;;
21507;SDS011;10915;54.352;9.074;2023-11-21T01:25:38;22.60;;;17.17;;
21507;SDS011;10915;54.352;9.074;2023-11-21T01:28:04;20.20;;;15.63;;
21507;SDS011;10915;54.352;9.074;2023-11-21T01:30:30;18.97;;;16.27;;
21507;SDS011;10915;54.352;9.074;2023-11-21T01:32:57;20.77;;;15.30;;
21507;SDS011;10915;54.352;9.074;2023-11-21T01:35:23;18.53;;;14.73;;
21507;SDS011;10915;54.352;9.074;2023-11-21T01:37:49;14.00;;;11.67;;
21507;SDS011;10915;54.352;9.074;2023-11-21T01:40:14;19.37;;;14.63;;
21507;SDS011;10915;54.352;9.074;2023-11-21T01:42:40;21.93;;;15.30;;
21507;SDS011;10915;54.352;9.074;2023-11-21T01:45:08;18.93;;;14.00;;
21507;SDS011;10915;54.352;9.074;2023-11-21T01:47:34;17.07;;;13.77;;
21507;SDS011;10915;54.352;9.074;2023-11-21T01:50:01;18.57;;;13.97;;
21507;SDS011;10915;54.352;9.074;2023-11-21T01:52:31;18.57;;;14.77;;
21507;SDS011;10915;54.352;9.074;2023-11-21T01:54:58;19.37;;;14.73;;
21507;SDS011;10915;54.352;9.074;2023-11-21T01:57:25;21.23;;;15.73;;
21507;SDS011;10915;54.352;9.074;2023-11-21T01:59:50;19.03;;;15.50;;
21507;SDS011;10915;54.352;9.074;2023-11-21T02:02:23;17.93;;;14.80;;
21507;SDS011;10915;54.352;9.074;2023-11-21T02:04:49;20.13;;;14.60;;
21507;SDS011;10915;54.352;9.074;2023-11-21T02:07:15;18.20;;;14.87;;
21507;SDS011;10915;54.352;9.074;2023-11-21T02:09:40;21.23;;;15.17;;
21507;SDS011;10915;54.352;9.074;2023-11-21T02:12:07;21.33;;;16.17;;
21507;SDS011;10915;54.352;9.074;2023-11-21T02:14:36;19.73;;;15.27;;
21507;SDS011;10915;54.352;9.074;2023-11-21T02:17:02;17.83;;;15.43;;
21507;SDS011;10915;54.352;9.074;2023-11-21T02:19:29;19.57;;;16.37;;
21507;SDS011;10915;54.352;9.074;2023-11-21T02:21:56;19.33;;;15.80;;
21507;SDS011;10915;54.352;9.074;2023-11-21T02:24:25;21.70;;;16.40;;
21507;SDS011;10915;54.352;9.074;2023-11-21T02:26:52;21.17;;;16.70;;
21507;SDS011;10915;54.352;9.074;2023-11-21T02:29:18;23.57;;;18.03;;
21507;SDS011;10915;54.352;9.074;2023-11-21T02:31:47;20.90;;;17.63;;
21507;SDS011;10915;54.352;9.074;2023-11-21T02:34:19;26.00;;;18.83;;
21507;SDS011;10915;54.352;9.074;2023-11-21T02:36:45;26.73;;;19.43;;
21507;SDS011;10915;54.352;9.074;2023-11-21T02:39:12;25.27;;;18.90;;
21507;SDS011;10915;54.352;9.074;2023-11-21T02:41:38;24.53;;;19.80;;
21507;SDS011;10915;54.352;9.074;2023-11-21T02:44:04;27.77;;;19.93;;
21507;SDS011;10915;54.352;9.074;2023-11-21T02:46:31;25.33;;;20.63;;
21507;SDS011;10915;54.352;9.074;2023-11-21T02:48:59;25.70;;;20.07;;
21507;SDS011;10915;54.352;9.074;2023-11-21T02:51:25;27.10;;;19.13;;
21507;SDS011;10915;54.352;9.074;2023-11-21T02:53:51;28.50;;;21.10;;
21507;SDS011;10915;54.352;9.074;2023-11-21T02:56:17;30.47;;;21.63;;
21507;SDS011;10915;54.352;9.074;2023-11-21T02:58:43;29.23;;;20.53;;
21507;SDS011;10915;54.352;9.074;2023-11-21T03:01:09;28.03;;;21.87;;
21507;SDS011;10915;54.352;9.074;2023-11-21T03:03:36;29.73;;;22.83;;
21507;SDS011;10915;54.352;9.074;2023-11-21T03:06:05;33.13;;;23.43;;
21507;SDS011;10915;54.352;9.074;2023-11-21T03:08:31;36.40;;;25.10;;
21507;SDS011;10915;54.352;9.074;2023-11-21T03:10:57;32.10;;;24.63;;
21507;SDS011;10915;54.352;9.074;2023-11-21T03:13:23;33.10;;;24.50;;
21507;SDS011;10915;54.352;9.074;2023-11-21T03:15:49;33.60;;;25.67;;
21507;SDS011;10915;54.352;9.074;2023-11-21T03:18:15;30.30;;;22.77;;
21507;SDS011;10915;54.352;9.074;2023-11-21T03:20:41;35.20;;;23.83;;
21507;SDS011;10915;54.352;9.074;2023-11-21T03:23:11;30.73;;;22.30;;
21507;SDS011;10915;54.352;9.074;2023-11-21T03:25:37;32.73;;;23.57;;
21507;SDS011;10915;54.352;9.074;2023-11-21T03:28:03;32.47;;;23.67;;
21507;SDS011;10915;54.352;9.074;2023-11-21T03:30:29;30.43;;;23.53;;
21507;SDS011;10915;54.352;9.074;2023-11-21T03:32:55;35.67;;;24.33;;
21507;SDS011;10915;54.352;9.074;2023-11-21T03:35:21;35.17;;;23.73;;
21507;SDS011;10915;54.352;9.074;2023-11-21T03:37:46;30.60;;;23.07;;
21507;SDS011;10915;54.352;9.074;2023-11-21T03:40:12;27.30;;;21.07;;
21507;SDS011;10915;54.352;9.074;2023-11-21T03:42:39;25.30;;;19.33;;
21507;SDS011;10915;54.352;9.074;2023-11-21T03:45:05;26.77;;;19.73;;
21507;SDS011;10915;54.352;9.074;2023-11-21T03:47:31;23.97;;;18.33;;
21507;SDS011;10915;54.352;9.074;2023-11-21T03:49:57;23.43;;;17.00;;
21507;SDS011;10915;54.352;9.074;2023-11-21T03:52:22;23.50;;;18.13;;
21507;SDS011;10915;54.352;9.074;2023-11-21T03:54:48;25.70;;;17.23;;
21507;SDS011;10915;54.352;9.074;2023-11-21T03:57:14;20.70;;;15.50;;
21507;SDS011;10915;54.352;9.074;2023-11-21T03:59:40;21.80;;;15.17;;
21507;SDS011;10915;54.352;9.074;2023-11-21T04:02:06;18.50;;;14.53;;
21507;SDS011;10915;54.352;9.074;2023-11-21T04:04:32;22.03;;;14.17;;
21507;SDS011;10915;54.352;9.074;2023-11-21T04:06:58;18.03;;;13.23;;
21507;SDS011;10915;54.352;9.074;2023-11-21T04:09:24;19.17;;;12.97;;
21507;SDS011;10915;54.352;9.074;2023-11-21T04:11:50;18.87;;;12.57;;
21507;SDS011;10915;54.352;9.074;2023-11-21T04:14:17;13.67;;;11.10;;
21507;SDS011;10915;54.352;9.074;2023-11-21T04:16:42;16.30;;;11.27;;
21507;SDS011;10915;54.352;9.074;2023-11-21T04:19:08;17.63;;;12.07;;
21507;SDS011;10915;54.352;9.074;2023-11-21T04:21:39;13.17;;;10.47;;
21507;SDS011;10915;54.352;9.074;2023-11-21T04:24:08;17.57;;;11.03;;
21507;SDS011;10915;54.352;9.074;2023-11-21T04:26:34;15.17;;;10.80;;
21507;SDS011;10915;54.352;9.074;2023-11-21T04:29:00;13.47;;;10.93;;
21507;SDS011;10915;54.352;9.074;2023-11-21T04:31:25;17.20;;;11.10;;
21507;SDS011;10915;54.352;9.074;2023-11-21T04:33:51;14.13;;;10.73;;
21507;SDS011;10915;54.352;9.074;2023-11-21T04:36:16;12.43;;;9.80;;
21507;SDS011;10915;54.352;9.074;2023-11-21T04:38:42;15.20;;;9.40;;
21507;SDS011;10915;54.352;9.074;2023-11-21T04:41:08;12.53;;;9.13;;
21507;SDS011;10915;54.352;9.074;2023-11-21T04:43:33;11.97;;;9.43;;
21507;SDS011;10915;54.352;9.074;2023-11-21T04:45:59;14.27;;;8.53;;
21507;SDS011;10915;54.352;9.074;2023-11-21T04:48:25;11.87;;;9.33;;
21507;SDS011;10915;54.352;9.074;2023-11-21T04:50:51;12.73;;;9.20;;
21507;SDS011;10915;54.352;9.074;2023-11-21T04:53:17;15.03;;;9.50;;
21507;SDS011;10915;54.352;9.074;2023-11-21T04:55:42;13.07;;;9.23;;
21507;SDS011;10915;54.352;9.074;2023-11-21T04:58:08;15.67;;;9.60;;
21507;SDS011;10915;54.352;9.074;2023-11-21T05:00:34;14.03;;;8.53;;
21507;SDS011;10915;54.352;9.074;2023-11-21T05:03:01;11.87;;;8.73;;
21507;SDS011;10915;54.352;9.074;2023-11-21T05:05:28;11.77;;;8.10;;
21507;SDS011;10915;54.352;9.074;2023-11-21T05:07:54;11.20;;;8.60;;
21507;SDS011;10915;54.352;9.074;2023-11-21T05:10:20;12.30;;;7.80;;
21507;SDS011;10915;54.352;9.074;2023-11-21T05:12:47;12.13;;;7.63;;
21507;SDS011;10915;54.352;9.074;2023-11-21T05:15:15;13.07;;;7.90;;
21507;SDS011;10915;54.352;9.074;2023-11-21T05:17:42;9.23;;;7.40;;
21507;SDS011;10915;54.352;9.074;2023-11-21T05:20:14;10.37;;;7.33;;
21507;SDS011;10915;54.352;9.074;2023-11-21T05:22:45;10.60;;;7.60;;
21507;SDS011;10915;54.352;9.074;2023-11-21T05:25:11;10.40;;;6.97;;
21507;SDS011;10915;54.352;9.074;2023-11-21T05:27:37;11.03;;;7.10;;
21507;SDS011;10915;54.352;9.074;2023-11-21T05:30:03;11.17;;;7.40;;
21507;SDS011;10915;54.352;9.074;2023-11-21T05:32:37;11.67;;;7.53;;
21507;SDS011;10915;54.352;9.074;2023-11-21T05:35:03;13.83;;;6.70;;
21507;SDS011;10915;54.352;9.074;2023-11-21T05:37:34;10.90;;;6.90;;
21507;SDS011;10915;54.352;9.074;2023-11-21T05:40:00;8.53;;;5.33;;
21507;SDS011;10915;54.352;9.074;2023-11-21T05:42:31;8.83;;;6.27;;
21507;SDS011;10915;54.352;9.074;2023-11-21T05:45:00;8.70;;;6.17;;
21507;SDS011;10915;54.352;9.074;2023-11-21T05:47:42;10.20;;;6.07;;
21507;SDS011;10915;54.352;9.074;2023-11-21T05:50:11;8.90;;;6.43;;
21507;SDS011;10915;54.352;9.074;2023-11-21T05:52:39;9.77;;;6.20;;
21507;SDS011;10915;54.352;9.074;2023-11-21T05:55:06;11.13;;;6.03;;
21507;SDS011;10915;54.352;9.074;2023-11-21T05:57:35;8.87;;;5.93;;
21507;SDS011;10915;54.352;9.074;2023-11-21T06:00:04;9.13;;;6.13;;
21507;SDS011;10915;54.352;9.074;2023-11-21T06:02:53;8.90;;;5.80;;
21507;SDS011;10915;54.352;9.074;2023-11-21T06:05:20;8.87;;;6.10;;
21507;SDS011;10915;54.352;9.074;2023-11-21T06:07:48;9.67;;;6.17;;
21507;SDS011;10915;54.352;9.074;2023-11-21T06:10:14;7.63;;;5.77;;
21507;SDS011;10915;54.352;9.074;2023-11-21T06:12:42;11.10;;;7.00;;
21507;SDS011;10915;54.352;9.074;2023-11-21T06:15:09;10.50;;;6.60;;
21507;SDS011;10915;54.352;9.074;2023-11-21T06:17:38;8.77;;;6.03;;
21507;SDS011;10915;54.352;9.074;2023-11-21T06:20:08;7.87;;;6.00;;
21507;SDS011;10915;54.352;9.074;2023-11-21T06:22:38;9.17;;;6.73;;
21507;SDS011;10915;54.352;9.074;2023-11-21T06:25:05;9.70;;;6.20;;
21507;SDS011;10915;54.352;9.074;2023-11-21T06:31:11;7.93;;;5.90;;
21507;SDS011;10915;54.352;9.074;2023-11-21T06:33:37;11.77;;;6.17;;
21507;SDS011;10915;54.352;9.074;2023-11-21T06:36:03;9.67;;;6.20;;
21507;SDS011;10915;54.352;9.074;2023-11-21T06:38:29;12.00;;;6.13;;
21507;SDS011;10915;54.352;9.074;2023-11-21T06:40:58;10.03;;;6.00;;
21507;SDS011;10915;54.352;9.074;2023-11-21T06:43:23;8.80;;;5.77;;
21507;SDS011;10915;54.352;9.074;2023-11-21T06:45:49;10.53;;;5.80;;
21507;SDS011;10915;54.352;9.074;2023-11-21T06:48:15;10.73;;;6.10;;
21507;SDS011;10915;54.352;9.074;2023-11-21T06:50:40;9.23;;;6.50;;
21507;SDS011;10915;54.352;9.074;2023-11-21T06:53:06;8.50;;;6.13;;
21507;SDS011;10915;54.352;9.074;2023-11-21T06:55:33;11.23;;;5.77;;
21507;SDS011;10915;54.352;9.074;2023-11-21T06:57:59;8.40;;;5.90;;
21507;SDS011;10915;54.352;9.074;2023-11-21T07:00:25;7.30;;;5.43;;
21507;SDS011;10915;54.352;9.074;2023-11-21T07:02:53;9.47;;;5.73;;
21507;SDS011;10915;54.352;9.074;2023-11-21T07:05:20;10.10;;;5.73;;
21507;SDS011;10915;54.352;9.074;2023-11-21T07:07:47;10.53;;;5.63;;
21507;SDS011;10915;54.352;9.074;2023-11-21T07:10:13;7.17;;;5.43;;
21507;SDS011;10915;54.352;9.074;2023-11-21T07:12:39;9.53;;;5.50;;
21507;SDS011;10915;54.352;9.074;2023-11-21T07:15:05;8.17;;;5.30;;
21507;SDS011;10915;54.352;9.074;2023-11-21T07:17:34;10.93;;;5.80;;
21507;SDS011;10915;54.352;9.074;2023-11-21T07:20:02;8.73;;;6.03;;
21507;SDS011;10915;54.352;9.074;2023-11-21T07:22:28;9.23;;;4.90;;
21507;SDS011;10915;54.352;9.074;2023-11-21T07:24:55;7.47;;;5.20;;
21507;SDS011;10915;54.352;9.074;2023-11-21T07:27:21;9.27;;;5.50;;
21507;SDS011;10915;54.352;9.074;2023-11-21T07:29:47;8.90;;;5.80;;
21507;SDS011;10915;54.352;9.074;2023-11-21T07:32:15;7.90;;;5.00;;
21507;SDS011;10915;54.352;9.074;2023-11-21T07:34:41;7.63;;;5.20;;
21507;SDS011;10915;54.352;9.074;2023-11-21T07:37:07;8.33;;;5.70;;
21507;SDS011;10915;54.352;9.074;2023-11-21T07:39:34;10.03;;;6.27;;
21507;SDS011;10915;54.352;9.074;2023-11-21T07:42:01;10.80;;;6.37;;
21507;SDS011;10915;54.352;9.074;2023-11-21T07:44:27;8.23;;;6.47;;
21507;SDS011;10915;54.352;9.074;2023-11-21T07:46:53;9.07;;;5.93;;
21507;SDS011;10915;54.352;9.074;2023-11-21T07:49:22;8.40;;;6.37;;
21507;SDS011;10915;54.352;9.074;2023-11-21T07:51:49;9.83;;;6.40;;
21507;SDS011;10915;54.352;9.074;2023-11-21T07:54:16;8.87;;;6.13;;
21507;SDS011;10915;54.352;9.074;2023-11-21T07:56:41;8.53;;;6.57;;
21507;SDS011;10915;54.352;9.074;2023-11-21T07:59:07;8.13;;;6.20;;
21507;SDS011;10915;54.352;9.074;2023-11-21T08:01:33;9.30;;;6.43;;
21507;SDS011;10915;54.352;9.074;2023-11-21T08:03:59;9.23;;;6.43;;
21507;SDS011;10915;54.352;9.074;2023-11-21T08:06:28;10.23;;;7.30;;
21507;SDS011;10915;54.352;9.074;2023-11-21T08:08:55;9.37;;;6.87;;
21507;SDS011;10915;54.352;9.074;2023-11-21T08:11:21;8.27;;;6.63;;
21507;SDS011;10915;54.352;9.074;2023-11-21T08:13:47;9.20;;;6.90;;
21507;SDS011;10915;54.352;9.074;2023-11-21T08:16:13;11.63;;;7.10;;
21507;SDS011;10915;54.352;9.074;2023-11-21T08:18:38;10.17;;;6.90;;
21507;SDS011;10915;54.352;9.074;2023-11-21T08:21:05;10.40;;;6.77;;
21507;SDS011;10915;54.352;9.074;2023-11-21T08:23:30;10.27;;;7.53;;
21507;SDS011;10915;54.352;9.074;2023-11-21T08:25:57;11.67;;;7.37;;
21507;SDS011;10915;54.352;9.074;2023-11-21T08:28:22;10.13;;;7.60;;
21507;SDS011;10915;54.352;9.074;2023-11-21T08:30:50;10.27;;;7.50;;
21507;SDS011;10915;54.352;9.074;2023-11-21T08:33:16;10.60;;;7.50;;
21507;SDS011;10915;54.352;9.074;2023-11-21T08:35:42;10.73;;;7.20;;
21507;SDS011;10915;54.352;9.074;2023-11-21T08:38:08;10.40;;;7.80;;
21507;SDS011;10915;54.352;9.074;2023-11-21T08:40:35;11.27;;;7.93;;
21507;SDS011;10915;54.352;9.074;2023-11-21T08:43:00;11.90;;;7.83;;
21507;SDS011;10915;54.352;9.074;2023-11-21T08:45:29;11.20;;;7.93;;
21507;SDS011;10915;54.352;9.074;2023-11-21T08:47:55;8.83;;;7.33;;
21507;SDS011;10915;54.352;9.074;2023-11-21T08:50:21;12.70;;;8.17;;
21507;SDS011;10915;54.352;9.074;2023-11-21T08:52:47;12.10;;;8.53;;
21507;SDS011;10915;54.352;9.074;2023-11-21T08:55:13;10.73;;;8.27;;
21507;SDS011;10915;54.352;9.074;2023-11-21T08:57:39;9.80;;;8.23;;
21507;SDS011;10915;54.352;9.074;2023-11-21T09:00:06;9.40;;;7.53;;
21507;SDS011;10915;54.352;9.074;2023-11-21T09:02:36;12.23;;;8.63;;
21507;SDS011;10915;54.352;9.074;2023-11-21T09:05:09;10.13;;;8.53;;
21507;SDS011;10915;54.352;9.074;2023-11-21T09:07:36;11.40;;;8.33;;
21507;SDS011;10915;54.352;9.074;2023-11-21T09:10:05;11.43;;;8.50;;
21507;SDS011;10915;54.352;9.074;2023-11-21T09:12:33;9.60;;;8.13;;
21507;SDS011;10915;54.352;9.074;2023-11-21T09:15:00;11.23;;;8.33;;
21507;SDS011;10915;54.352;9.074;2023-11-21T09:17:27;11.50;;;8.43;;
21507;SDS011;10915;54.352;9.074;2023-11-21T09:19:53;12.40;;;8.67;;
21507;SDS011;10915;54.352;9.074;2023-11-21T09:22:18;13.80;;;8.70;;
21507;SDS011;10915;54.352;9.074;2023-11-21T09:24:44;12.20;;;8.53;;
21507;SDS011;10915;54.352;9.074;2023-11-21T09:27:10;10.73;;;8.60;;
21507;SDS011;10915;54.352;9.074;2023-11-21T09:29:36;11.27;;;8.30;;
21507;SDS011;10915;54.352;9.074;2023-11-21T09:32:08;10.80;;;9.23;;
21507;SDS011;10915;54.352;9.074;2023-11-21T09:34:37;11.47;;;8.70;;
21507;SDS011;10915;54.352;9.074;2023-11-21T09:37:04;14.27;;;8.60;;
21507;SDS011;10915;54.352;9.074;2023-11-21T09:39:31;10.60;;;8.13;;
21507;SDS011;10915;54.352;9.074;2023-11-21T09:42:17;9.67;;;8.10;;
21507;SDS011;10915;54.352;9.074;2023-11-21T09:45:24;10.17;;;8.10;;
21507;SDS011;10915;54.352;9.074;2023-11-21T09:47:53;11.63;;;8.47;;
21507;SDS011;10915;54.352;9.074;2023-11-21T09:50:23;11.33;;;8.70;;
21507;SDS011;10915;54.352;9.074;2023-11-21T09:52:58;10.37;;;7.57;;
21507;SDS011;10915;54.352;9.074;2023-11-21T09:55:42;8.73;;;6.00;;
21507;SDS011;10915;54.352;9.074;2023-11-21T09:58:09;9.83;;;7.77;;
21507;SDS011;10915;54.352;9.074;2023-11-21T10:00:37;11.27;;;7.73;;
21507;SDS011;10915;54.352;9.074;2023-11-21T10:03:08;9.50;;;7.50;;
21507;SDS011;10915;54.352;9.074;2023-11-21T10:05:35;9.77;;;8.00;;
21507;SDS011;10915;54.352;9.074;2023-11-21T10:08:01;10.87;;;7.63;;
21507;SDS011;10915;54.352;9.074;2023-11-21T10:10:29;8.73;;;7.63;;
21507;SDS011;10915;54.352;9.074;2023-11-21T10:12:57;9.67;;;7.30;;
21507;SDS011;10915;54.352;9.074;2023-11-21T10:15:26;9.30;;;7.03;;
21507;SDS011;10915;54.352;9.074;2023-11-21T10:17:52;8.27;;;6.90;;
21507;SDS011;10915;54.352;9.074;2023-11-21T10:20:20;8.73;;;7.07;;
21507;SDS011;10915;54.352;9.074;2023-11-21T10:22:46;10.50;;;7.03;;
21507;SDS011;10915;54.352;9.074;2023-11-21T10:25:12;10.30;;;7.07;;
21507;SDS011;10915;54.352;9.074;2023-11-21T10:27:41;9.53;;;7.10;;
21507;SDS011;10915;54.352;9.074;2023-11-21T10:30:08;10.07;;;6.60;;
21507;SDS011;10915;54.352;9.074;2023-11-21T10:32:38;8.90;;;7.10;;
21507;SDS011;10915;54.352;9.074;2023-11-21T10:35:05;10.93;;;7.63;;
21507;SDS011;10915;54.352;9.074;2023-11-21T10:37:35;9.90;;;7.47;;
21507;SDS011;10915;54.352;9.074;2023-11-21T10:40:04;11.33;;;7.67;;
21507;SDS011;10915;54.352;9.074;2023-11-21T10:42:32;11.10;;;7.37;;
21507;SDS011;10915;54.352;9.074;2023-11-21T10:44:58;8.47;;;7.00;;
21507;SDS011;10915;54.352;9.074;2023-11-21T10:47:23;8.70;;;6.60;;
21507;SDS011;10915;54.352;9.074;2023-11-21T10:49:51;9.97;;;6.40;;
21507;SDS011;10915;54.352;9.074;2023-11-21T10:52:21;9.00;;;6.50;;
21507;SDS011;10915;54.352;9.074;2023-11-21T10:54:47;7.73;;;6.10;;
21507;SDS011;10915;54.352;9.074;2023-11-21T10:57:14;8.27;;;5.50;;
21507;SDS011;10915;54.352;9.074;2023-11-21T10:59:44;7.53;;;5.67;;
21507;SDS011;10915;54.352;9.074;2023-11-21T11:02:18;8.73;;;5.97;;
21507;SDS011;10915;54.352;9.074;2023-11-21T11:04:57;9.93;;;6.10;;
21507;SDS011;10915;54.352;9.074;2023-11-21T11:07:27;8.70;;;6.30;;
21507;SDS011;10915;54.352;9.074;2023-11-21T11:09:58;9.73;;;6.70;;
21507;SDS011;10915;54.352;9.074;2023-11-21T11:12:24;11.30;;;7.33;;
21507;SDS011;10915;54.352;9.074;2023-11-21T11:14:50;9.07;;;7.30;;
21507;SDS011;10915;54.352;9.074;2023-11-21T11:17:17;8.50;;;6.50;;
21507;SDS011;10915;54.352;9.074;2023-11-21T11:19:47;8.33;;;6.20;;
21507;SDS011;10915;54.352;9.074;2023-11-21T11:33:37;8.53;;;6.43;;
21507;SDS011;10915;54.352;9.074;2023-11-21T11:38:47;8.57;;;5.97;;
21507;SDS011;10915;54.352;9.074;2023-11-21T11:41:23;7.53;;;5.27;;
21507;SDS011;10915;54.352;9.074;2023-11-21T11:43:52;8.13;;;5.87;;
21507;SDS011;10915;54.352;9.074;2023-11-21T11:46:18;8.00;;;5.57;;
21507;SDS011;10915;54.352;9.074;2023-11-21T11:48:46;8.57;;;6.23;;
21507;SDS011;10915;54.352;9.074;2023-11-21T11:51:27;8.33;;;5.90;;
21507;SDS011;10915;54.352;9.074;2023-11-21T11:53:52;8.03;;;6.03;;
21507;SDS011;10915;54.352;9.074;2023-11-21T11:56:26;10.00;;;6.20;;
21507;SDS011;10915;54.352;9.074;2023-11-21T11:58:55;7.87;;;5.83;;
21507;SDS011;10915;54.352;9.074;2023-11-21T12:01:23;9.70;;;6.50;;
21507;SDS011;10915;54.352;9.074;2023-11-21T12:07:07;8.83;;;6.83;;
21507;SDS011;10915;54.352;9.074;2023-11-21T12:09:33;7.40;;;5.73;;
21507;SDS011;10915;54.352;9.074;2023-11-21T12:11:59;8.40;;;5.73;;
21507;SDS011;10915;54.352;9.074;2023-11-21T12:14:27;8.40;;;5.93;;
21507;SDS011;10915;54.352;9.074;2023-11-21T12:16:56;9.60;;;6.70;;
21507;SDS011;10915;54.352;9.074;2023-11-21T12:19:22;12.63;;;6.47;;
21507;SDS011;10915;54.352;9.074;2023-11-21T12:21:53;10.63;;;6.27;;
21507;SDS011;10915;54.352;9.074;2023-11-21T12:24:20;10.50;;;5.93;;
21507;SDS011;10915;54.352;9.074;2023-11-21T12:26:48;8.63;;;5.70;;
21507;SDS011;10915;54.352;9.074;2023-11-21T12:29:14;7.80;;;5.57;;
21507;SDS011;10915;54.352;9.074;2023-11-21T12:31:41;7.47;;;5.40;;
21507;SDS011;10915;54.352;9.074;2023-11-21T12:34:07;9.13;;;6.00;;
21507;SDS011;10915;54.352;9.074;2023-11-21T12:36:36;7.20;;;5.63;;
21507;SDS011;10915;54.352;9.074;2023-11-21T12:39:02;8.40;;;5.37;;
21507;SDS011;10915;54.352;9.074;2023-11-21T12:41:28;7.90;;;6.07;;
21507;SDS011;10915;54.352;9.074;2023-11-21T12:43:54;7.30;;;5.57;;
21507;SDS011;10915;54.352;9.074;2023-11-21T12:46:20;8.80;;;6.43;;
21507;SDS011;10915;54.352;9.074;2023-11-21T12:48:46;9.80;;;6.13;;
21507;SDS011;10915;54.352;9.074;2023-11-21T12:51:12;7.87;;;5.50;;
21507;SDS011;10915;54.352;9.074;2023-11-21T12:53:41;8.93;;;6.10;;
21507;SDS011;10915;54.352;9.074;2023-11-21T12:56:09;11.17;;;6.20;;
21507;SDS011;10915;54.352;9.074;2023-11-21T12:58:36;10.13;;;6.43;;
21507;SDS011;10915;54.352;9.074;2023-11-21T13:01:04;9.57;;;6.00;;
21507;SDS011;10915;54.352;9.074;2023-11-21T13:03:37;8.77;;;6.43;;
21507;SDS011;10915;54.352;9.074;2023-11-21T13:06:05;8.70;;;6.23;;
21507;SDS011;10915;54.352;9.074;2023-11-21T13:08:32;9.17;;;6.07;;
21507;SDS011;10915;54.352;9.074;2023-11-21T13:10:58;8.43;;;6.40;;
21507;SDS011;10915;54.352;9.074;2023-11-21T13:13:26;10.17;;;6.70;;
21507;SDS011;10915;54.352;9.074;2023-11-21T13:15:59;9.27;;;6.40;;
21507;SDS011;10915;54.352;9.074;2023-11-21T13:18:26;8.23;;;6.77;;
21507;SDS011;10915;54.352;9.074;2023-11-21T13:20:56;9.17;;;6.93;;
21507;SDS011;10915;54.352;9.074;2023-11-21T13:23:23;9.47;;;6.43;;
21507;SDS011;10915;54.352;9.074;2023-11-21T13:25:50;8.87;;;6.90;;
21507;SDS011;10915;54.352;9.074;2023-11-21T13:28:16;10.97;;;7.37;;
21507;SDS011;10915;54.352;9.074;2023-11-21T13:30:45;10.17;;;7.37;;
21507;SDS011;10915;54.352;9.074;2023-11-21T13:33:13;10.77;;;7.83;;
21507;SDS011;10915;54.352;9.074;2023-11-21T13:35:43;9.53;;;7.63;;
21507;SDS011;10915;54.352;9.074;2023-11-21T13:38:16;9.03;;;6.67;;
21507;SDS011;10915;54.352;9.074;2023-11-21T13:40:46;10.00;;;7.23;;
21507;SDS011;10915;54.352;9.074;2023-11-21T13:43:15;10.43;;;7.50;;
21507;SDS011;10915;54.352;9.074;2023-11-21T13:45:45;10.73;;;7.17;;
21507;SDS011;10915;54.352;9.074;2023-11-21T13:48:12;9.43;;;6.60;;
21507;SDS011;10915;54.352;9.074;2023-11-21T13:50:56;12.83;;;6.90;;
21507;SDS011;10915;54.352;9.074;2023-11-21T13:53:41;11.97;;;7.07;;
21507;SDS011;10915;54.352;9.074;2023-11-21T13:56:07;8.33;;;6.37;;
21507;SDS011;10915;54.352;9.074;2023-11-21T13:58:33;9.47;;;7.40;;
21507;SDS011;10915;54.352;9.074;2023-11-21T14:01:18;9.50;;;6.67;;
21507;SDS011;10915;54.352;9.074;2023-11-21T14:04:07;10.43;;;6.90;;
21507;SDS011;10915;54.352;9.074;2023-11-21T14:06:50;11.83;;;7.43;;
21507;SDS011;10915;54.352;9.074;2023-11-21T14:09:20;10.13;;;6.60;;
21507;SDS011;10915;54.352;9.074;2023-11-21T14:12:08;11.27;;;6.83;;
21507;SDS011;10915;54.352;9.074;2023-11-21T14:14:37;9.57;;;6.20;;
21507;SDS011;10915;54.352;9.074;2023-11-21T14:17:04;10.77;;;7.23;;
21507;SDS011;10915;54.352;9.074;2023-11-21T14:19:32;10.13;;;7.07;;
21507;SDS011;10915;54.352;9.074;2023-11-21T14:21:58;11.67;;;6.93;;
21507;SDS011;10915;54.352;9.074;2023-11-21T14:24:25;8.50;;;6.70;;
21507;SDS011;10915;54.352;9.074;2023-11-21T14:26:50;11.23;;;7.00;;
21507;SDS011;10915;54.352;9.074;2023-11-21T14:29:16;11.33;;;6.77;;
21507;SDS011;10915;54.352;9.074;2023-11-21T14:31:47;9.20;;;5.87;;
21507;SDS011;10915;54.352;9.074;2023-11-21T14:34:13;9.30;;;6.60;;
21507;SDS011;10915;54.352;9.074;2023-11-21T14:36:41;10.27;;;6.47;;
21507;SDS011;10915;54.352;9.074;2023-11-21T14:39:08;9.07;;;5.63;;
21507;SDS011;10915;54.352;9.074;2023-11-21T14:41:41;10.27;;;6.50;;
21507;SDS011;10915;54.352;9.074;2023-11-21T14:44:07;8.53;;;6.60;;
21507;SDS011;10915;54.352;9.074;2023-11-21T14:46:37;8.97;;;6.40;;
21507;SDS011;10915;54.352;9.074;2023-11-21T14:49:04;9.27;;;6.73;;
21507;SDS011;10915;54.352;9.074;2023-11-21T14:51:44;9.40;;;7.07;;
21507;SDS011;10915;54.352;9.074;2023-11-21T14:54:20;9.97;;;7.10;;
21507;SDS011;10915;54.352;9.074;2023-11-21T14:57:03;9.03;;;6.17;;
21507;SDS011;10915;54.352;9.074;2023-11-21T14:59:32;10.27;;;6.90;;